TimeCST,TemperatureF,Dew PointF,Humidity,Sea Level PressureIn,VisibilityMPH,Wind Direction,Wind SpeedMPH,Gust SpeedMPH,PrecipitationIn,Events,Conditions,WindDirDegrees,DateUTC
12:15 AM,42.8,42.8,100,30.29,4.0,Calm,Calm,-,N/A,,Clear,0,2012-11-19 06:15:00
12:35 AM,41.0,41.0,100,30.27,4.0,Calm,Calm,-,N/A,,Clear,0,2012-11-19 06:35:00
12:55 AM,41.0,41.0,100,30.27,5.0,Calm,Calm,-,N/A,,Clear,0,2012-11-19 06:55:00
1:15 AM,41.0,41.0,100,30.27,5.0,Calm,Calm,-,N/A,,Clear,0,2012-11-19 07:15:00
1:35 AM,41.0,41.0,100,30.27,5.0,Calm,Calm,-,N/A,,Clear,0,2012-11-19 07:35:00
1:55 AM,41.0,41.0,100,30.26,4.0,Calm,Calm,-,N/A,,Clear,0,2012-11-19 07:55:00
2:15 AM,39.2,39.2,100,30.26,4.0,Calm,Calm,-,N/A,,Clear,0,2012-11-19 08:15:00
2:35 AM,41.0,41.0,100,30.27,5.0,Calm,Calm,-,N/A,,Clear,0,2012-11-19 08:35:00
2:55 AM,41.0,41.0,100,30.28,4.0,Calm,Calm,-,N/A,,Clear,0,2012-11-19 08:55:00
3:15 AM,41.0,41.0,100,30.27,4.0,Calm,Calm,-,N/A,,Clear,0,2012-11-19 09:15:00
3:35 AM,41.0,41.0,100,30.27,7.0,Calm,Calm,-,N/A,,Clear,0,2012-11-19 09:35:00
3:55 AM,41.0,41.0,100,30.27,7.0,Calm,Calm,-,N/A,,Clear,0,2012-11-19 09:55:00
4:15 AM,41.0,41.0,100,30.27,4.0,Calm,Calm,-,N/A,,Clear,0,2012-11-19 10:15:00
4:35 AM,41.0,41.0,100,30.26,7.0,Calm,Calm,-,N/A,,Clear,0,2012-11-19 10:35:00
4:55 AM,41.0,41.0,100,30.27,7.0,Calm,Calm,-,N/A,,Clear,0,2012-11-19 10:55:00
5:15 AM,39.2,39.2,100,30.27,5.0,Calm,Calm,-,N/A,,Clear,0,2012-11-19 11:15:00
5:35 AM,37.4,37.4,100,30.26,5.0,Calm,Calm,-,N/A,,Clear,0,2012-11-19 11:35:00
5:55 AM,41.0,41.0,100,30.28,10.0,Calm,Calm,-,N/A,,Clear,0,2012-11-19 11:55:00
6:15 AM,37.4,37.4,100,30.28,5.0,Calm,Calm,-,N/A,,Clear,0,2012-11-19 12:15:00
6:35 AM,39.2,39.2,100,30.28,4.0,Calm,Calm,-,N/A,,Clear,0,2012-11-19 12:35:00
6:55 AM,37.4,37.4,100,30.28,4.0,Calm,Calm,-,N/A,,Clear,0,2012-11-19 12:55:00
7:35 AM,41.0,41.0,100,30.29,7.0,Calm,Calm,-,N/A,,Clear,0,2012-11-19 13:35:00
7:55 AM,44.6,44.6,100,30.29,10.0,Calm,Calm,-,N/A,,Clear,0,2012-11-19 13:55:00
8:15 AM,50.0,48.2,94,30.29,10.0,Calm,Calm,-,N/A,,Clear,0,2012-11-19 14:15:00
8:35 AM,53.6,46.4,77,30.30,10.0,ENE,3.5,-,N/A,,Clear,70,2012-11-19 14:35:00
8:55 AM,55.4,46.4,72,30.30,10.0,ENE,3.5,-,N/A,,Clear,70,2012-11-19 14:55:00
9:15 AM,59.0,50.0,72,30.30,10.0,ENE,5.8,-,N/A,,Clear,60,2012-11-19 15:15:00
9:35 AM,60.8,50.0,68,30.30,10.0,ENE,5.8,-,N/A,,Clear,70,2012-11-19 15:35:00
9:55 AM,62.6,51.8,68,30.30,10.0,East,5.8,-,N/A,,Clear,90,2012-11-19 15:55:00
10:15 AM,64.4,51.8,64,30.30,10.0,ENE,4.6,-,N/A,,Clear,60,2012-11-19 16:15:00
10:35 AM,64.4,51.8,64,30.30,10.0,Calm,Calm,-,N/A,,Clear,0,2012-11-19 16:35:00
10:55 AM,66.2,50.0,56,30.30,10.0,East,3.5,-,N/A,,Clear,90,2012-11-19 16:55:00
11:15 AM,68.0,50.0,52,30.29,10.0,ESE,3.5,-,N/A,,Clear,120,2012-11-19 17:15:00
11:35 AM,68.0,50.0,52,30.28,10.0,Calm,Calm,-,N/A,,Clear,0,2012-11-19 17:35:00
11:55 AM,68.0,48.2,49,30.27,10.0,South,3.5,-,N/A,,Clear,180,2012-11-19 17:55:00
12:15 PM,69.8,48.2,46,30.26,10.0,Calm,Calm,-,N/A,,Clear,0,2012-11-19 18:15:00
12:35 PM,69.8,44.6,40,30.25,10.0,Calm,Calm,-,N/A,,Clear,0,2012-11-19 18:35:00
1:15 PM,69.8,46.4,43,30.23,10.0,Calm,Calm,-,N/A,,Clear,0,2012-11-19 19:15:00
1:35 PM,69.8,50.0,49,30.22,10.0,SSE,3.5,-,N/A,,Clear,160,2012-11-19 19:35:00
1:55 PM,71.6,48.2,43,30.21,10.0,East,5.8,-,N/A,,Clear,90,2012-11-19 19:55:00
2:15 PM,69.8,48.2,46,30.20,10.0,SE,5.8,-,N/A,,Clear,140,2012-11-19 20:15:00
2:35 PM,69.8,48.2,46,30.20,10.0,South,4.6,-,N/A,,Clear,180,2012-11-19 20:35:00
2:55 PM,69.8,46.4,43,30.19,10.0,SSE,3.5,-,N/A,,Clear,160,2012-11-19 20:55:00
3:15 PM,69.8,44.6,40,30.20,10.0,SSE,5.8,-,N/A,,Clear,160,2012-11-19 21:15:00
3:55 PM,68.0,46.4,46,30.19,10.0,SSE,5.8,-,N/A,,Clear,160,2012-11-19 21:55:00
4:15 PM,64.4,51.8,64,30.19,10.0,South,5.8,-,N/A,,Clear,180,2012-11-19 22:15:00
4:35 PM,64.4,51.8,64,30.20,10.0,South,6.9,-,N/A,,Clear,170,2012-11-19 22:35:00
4:55 PM,62.6,51.8,68,30.20,10.0,SSE,4.6,-,N/A,,Clear,160,2012-11-19 22:55:00
5:15 PM,60.8,53.6,77,30.19,10.0,SSE,4.6,-,N/A,,Clear,160,2012-11-19 23:15:00
5:35 PM,60.8,53.6,77,30.20,10.0,South,3.5,-,N/A,,Clear,170,2012-11-19 23:35:00
5:55 PM,59.0,53.6,82,30.20,10.0,South,3.5,-,N/A,,Clear,170,2012-11-19 23:55:00
6:15 PM,57.2,51.8,82,30.21,10.0,SSE,3.5,-,N/A,,Clear,150,2012-11-20 00:15:00
6:35 PM,55.4,53.6,94,30.21,10.0,Calm,Calm,-,N/A,,Clear,0,2012-11-20 00:35:00
6:55 PM,53.6,53.6,100,30.21,10.0,Calm,Calm,-,N/A,,Clear,0,2012-11-20 00:55:00
7:15 PM,51.8,51.8,100,30.22,10.0,Calm,Calm,-,N/A,,Clear,0,2012-11-20 01:15:00
7:35 PM,51.8,51.8,100,30.22,7.0,Calm,Calm,-,N/A,,Scattered Clouds,0,2012-11-20 01:35:00
7:55 PM,51.8,51.8,100,30.22,10.0,Calm,Calm,-,N/A,,Clear,0,2012-11-20 01:55:00
8:15 PM,50.0,50.0,100,30.22,5.0,Calm,Calm,-,N/A,,Clear,0,2012-11-20 02:15:00
8:35 PM,50.0,50.0,100,30.23,3.0,Calm,Calm,-,N/A,,Clear,0,2012-11-20 02:35:00
8:55 PM,48.2,48.2,100,30.23,5.0,Calm,Calm,-,N/A,,Clear,0,2012-11-20 02:55:00
9:15 PM,48.2,48.2,100,30.23,2.0,Calm,Calm,-,N/A,,Clear,0,2012-11-20 03:15:00
9:35 PM,48.2,48.2,100,30.23,1.5,Calm,Calm,-,N/A,,Mist,0,2012-11-20 03:35:00
9:55 PM,46.4,46.4,100,30.23,2.5,Calm,Calm,-,N/A,,Clear,0,2012-11-20 03:55:00
10:15 PM,46.4,46.4,100,30.22,1.8,Calm,Calm,-,N/A,,Mist,0,2012-11-20 04:15:00
10:35 PM,46.4,46.4,100,30.21,0.5,Calm,Calm,-,N/A,Fog,Fog,0,2012-11-20 04:35:00
10:55 PM,44.6,44.6,100,30.21,0.8,Calm,Calm,-,N/A,,Mist,0,2012-11-20 04:55:00
11:15 PM,44.6,44.6,100,30.21,0.8,Calm,Calm,-,N/A,,Mist,0,2012-11-20 05:15:00
11:35 PM,44.6,44.6,100,30.21,2.0,Calm,Calm,-,N/A,,Clear,0,2012-11-20 05:35:00
11:55 PM,44.6,44.6,100,30.21,1.5,Calm,Calm,-,N/A,,Mist,0,2012-11-20 05:55:00